createdAt,value
2023-03-11T00:01:45.342Z,71.70
2023-03-11T00:04:11.676Z,71.53
2023-03-11T00:06:38.000Z,71.45
2023-03-11T00:09:04.336Z,71.45
2023-03-11T00:11:30.655Z,71.75
2023-03-11T00:13:56.990Z,71.43
2023-03-11T00:16:23.347Z,72.01
2023-03-11T00:18:49.674Z,71.30
2023-03-11T00:21:15.990Z,70.93
2023-03-11T00:23:42.318Z,71.33
2023-03-11T00:26:08.653Z,72.00
2023-03-11T00:28:34.989Z,72.20
2023-03-11T00:31:01.339Z,72.42
2023-03-11T00:33:27.663Z,72.40
2023-03-11T00:35:54.037Z,72.72
2023-03-11T00:38:20.419Z,72.06
2023-03-11T00:40:46.775Z,71.96
2023-03-11T00:43:13.101Z,71.72
2023-03-11T00:45:39.434Z,72.04
2023-03-11T00:48:05.753Z,70.91
2023-03-11T00:50:32.066Z,71.17
2023-03-11T00:52:58.415Z,71.37
2023-03-11T00:55:24.704Z,71.41
2023-03-11T00:57:51.011Z,71.13
2023-03-11T01:00:17.315Z,71.48
2023-03-11T01:02:43.659Z,71.08
2023-03-11T01:05:09.969Z,70.89
2023-03-11T01:07:36.298Z,70.66
2023-03-11T01:10:02.639Z,70.39
2023-03-11T01:12:28.956Z,70.95
2023-03-11T01:14:55.269Z,70.80
2023-03-11T01:17:21.575Z,70.46
2023-03-11T01:19:47.904Z,70.49
2023-03-11T01:22:14.221Z,70.87
2023-03-11T01:24:40.533Z,70.16
2023-03-11T01:27:06.852Z,70.22
2023-03-11T01:29:33.158Z,69.45
2023-03-11T01:31:59.501Z,69.30
2023-03-11T01:34:25.849Z,69.04
2023-03-11T01:36:52.178Z,68.66
2023-03-11T01:39:18.490Z,68.12
2023-03-11T01:41:44.803Z,68.86
2023-03-11T01:44:11.105Z,68.18
2023-03-11T01:46:37.480Z,68.39
2023-03-11T01:49:03.815Z,68.23
2023-03-11T01:51:30.132Z,68.88
2023-03-11T01:53:56.429Z,67.89
2023-03-11T01:56:22.750Z,68.59
2023-03-11T01:58:49.061Z,69.17
2023-03-11T02:01:15.410Z,69.10
2023-03-11T02:03:41.748Z,68.52
2023-03-11T02:06:08.081Z,69.05
2023-03-11T02:08:34.409Z,69.50
2023-03-11T02:11:00.706Z,68.93
2023-03-11T02:13:27.013Z,69.92
2023-03-11T02:15:53.338Z,69.44
2023-03-11T02:18:19.660Z,69.46
2023-03-11T02:20:45.971Z,69.16
2023-03-11T02:23:12.274Z,69.48
2023-03-11T02:25:38.655Z,69.00
2023-03-11T02:28:05.108Z,69.33
2023-03-11T02:30:31.428Z,68.19
2023-03-11T02:32:57.741Z,68.17
2023-03-11T02:35:24.067Z,67.46
2023-03-11T02:37:50.400Z,67.38
2023-03-11T02:40:16.690Z,67.48
2023-03-11T02:42:42.998Z,68.10
2023-03-11T02:45:09.301Z,68.28
2023-03-11T02:47:35.653Z,68.15
2023-03-11T02:50:02.134Z,68.53
2023-03-11T02:52:28.460Z,69.07
2023-03-11T02:54:54.781Z,68.66
2023-03-11T02:57:21.111Z,69.04
2023-03-11T02:59:47.430Z,68.98
2023-03-11T03:02:13.752Z,68.88
2023-03-11T03:04:40.056Z,68.60
2023-03-11T03:07:06.379Z,69.11
2023-03-11T03:09:32.702Z,68.27
2023-03-11T03:11:59.024Z,68.17
2023-03-11T03:14:25.326Z,67.90
2023-03-11T03:16:51.762Z,68.39
2023-03-11T03:19:18.176Z,68.76
2023-03-11T03:21:44.494Z,68.23
2023-03-11T03:24:10.814Z,68.98
2023-03-11T03:26:37.118Z,68.76
2023-03-11T03:29:03.430Z,69.41
2023-03-11T03:31:29.782Z,68.51
2023-03-11T03:33:56.092Z,68.40
2023-03-11T03:36:22.403Z,68.04
2023-03-11T03:38:48.742Z,67.75
2023-03-11T03:41:15.057Z,67.72
2023-03-11T03:43:41.366Z,67.94
2023-03-11T03:46:07.710Z,68.81
2023-03-11T03:48:34.102Z,68.22
2023-03-11T03:51:00.402Z,69.11
2023-03-11T03:53:26.696Z,68.63
2023-03-11T03:55:53.021Z,68.62
2023-03-11T03:58:19.328Z,69.44
2023-03-11T04:00:45.630Z,69.78
2023-03-11T04:03:12.019Z,69.55
2023-03-11T04:05:38.361Z,69.51
2023-03-11T04:08:04.670Z,69.58
2023-03-11T04:10:30.970Z,70.11
2023-03-11T04:12:57.290Z,69.46
2023-03-11T04:15:23.630Z,69.29
2023-03-11T04:17:49.966Z,69.79
2023-03-11T04:20:16.284Z,69.52
2023-03-11T04:22:42.590Z,69.55
2023-03-11T04:25:08.917Z,69.86
2023-03-11T04:27:35.244Z,69.03
2023-03-11T04:30:01.587Z,69.72
2023-03-11T04:32:27.979Z,69.46
2023-03-11T04:34:54.301Z,69.57
2023-03-11T04:37:20.611Z,69.57
2023-03-11T04:39:46.913Z,69.56
2023-03-11T04:42:13.224Z,69.42
2023-03-11T04:44:39.547Z,69.63
2023-03-11T04:47:05.858Z,68.96
2023-03-11T04:49:32.178Z,69.24
2023-03-11T04:51:58.479Z,69.62
2023-03-11T04:54:24.782Z,70.01
2023-03-11T04:56:51.094Z,70.04
2023-03-11T04:59:17.407Z,70.00
2023-03-11T05:01:43.729Z,69.98
2023-03-11T05:04:10.119Z,69.69
2023-03-11T05:06:36.453Z,69.36
2023-03-11T05:09:02.750Z,69.64
2023-03-11T05:11:29.085Z,69.68
2023-03-11T05:13:55.414Z,69.54
2023-03-11T05:16:21.860Z,69.35
2023-03-11T05:18:48.225Z,70.15
2023-03-11T05:21:14.534Z,69.65
2023-03-11T05:23:40.840Z,69.57
2023-03-11T05:26:07.140Z,69.56
2023-03-11T05:28:33.462Z,70.22
2023-03-11T05:30:59.790Z,70.01
2023-03-11T05:33:26.110Z,69.74
2023-03-11T05:35:52.472Z,68.82
2023-03-11T05:38:18.785Z,69.07
2023-03-11T05:40:45.105Z,68.95
2023-03-11T05:43:11.436Z,69.70
2023-03-11T05:45:37.748Z,69.09
2023-03-11T05:48:04.065Z,69.50
2023-03-11T05:50:30.362Z,69.56
2023-03-11T05:52:56.660Z,69.46
2023-03-11T05:55:22.964Z,69.67
2023-03-11T05:57:49.294Z,69.93
2023-03-11T06:00:15.604Z,70.03
2023-03-11T06:02:41.939Z,69.87
2023-03-11T06:05:08.682Z,70.02
2023-03-11T06:07:35.380Z,69.82
2023-03-11T06:10:01.710Z,70.33
2023-03-11T06:12:28.037Z,70.05
2023-03-11T06:14:54.339Z,69.82
2023-03-11T06:17:20.642Z,70.27
2023-03-11T06:19:46.972Z,70.13
2023-03-11T06:22:13.275Z,69.87
2023-03-11T06:24:39.593Z,70.29
2023-03-11T06:27:05.925Z,69.82
2023-03-11T06:29:32.273Z,69.97
2023-03-11T06:31:58.594Z,70.20
2023-03-11T06:34:24.958Z,69.91
2023-03-11T06:36:51.263Z,69.95
2023-03-11T06:39:17.587Z,69.81
2023-03-11T06:41:43.909Z,69.66
2023-03-11T06:44:10.229Z,69.17
2023-03-11T06:46:36.540Z,69.24
2023-03-11T06:49:02.855Z,68.93
2023-03-11T06:51:29.187Z,69.36
2023-03-11T06:53:55.510Z,69.75
2023-03-11T06:56:21.829Z,69.98
2023-03-11T06:58:48.176Z,69.37
2023-03-11T07:01:14.619Z,69.30
2023-03-11T07:03:41.014Z,69.65
2023-03-11T07:06:07.342Z,69.46
2023-03-11T07:08:33.651Z,69.21
2023-03-11T07:10:59.948Z,70.01
2023-03-11T07:13:26.252Z,69.73
2023-03-11T07:15:52.575Z,69.38
2023-03-11T07:18:18.893Z,69.39
2023-03-11T07:20:45.208Z,69.68
2023-03-11T07:23:11.524Z,68.66
2023-03-11T07:25:37.833Z,68.80
2023-03-11T07:28:04.162Z,68.28
2023-03-11T07:30:30.529Z,68.52
2023-03-11T07:32:56.886Z,68.64
2023-03-11T07:35:23.280Z,68.66
2023-03-11T07:37:49.608Z,68.32
2023-03-11T07:40:16.223Z,67.79
2023-03-11T07:42:42.609Z,67.70
2023-03-11T07:45:08.951Z,67.58
2023-03-11T07:47:35.273Z,67.15
2023-03-11T07:50:01.594Z,66.64
2023-03-11T07:52:27.900Z,66.11
2023-03-11T07:54:54.206Z,66.36
2023-03-11T07:57:20.537Z,66.57
2023-03-11T07:59:46.843Z,65.77
2023-03-11T08:02:13.219Z,66.01
2023-03-11T08:04:39.546Z,65.68
2023-03-11T08:07:05.858Z,65.84
2023-03-11T08:09:32.170Z,65.73
2023-03-11T08:11:58.494Z,66.06
2023-03-11T08:14:24.813Z,66.19
2023-03-11T08:16:51.143Z,66.93
2023-03-11T08:19:17.472Z,66.87
2023-03-11T08:21:43.774Z,67.24
2023-03-11T08:24:10.077Z,67.06
2023-03-11T08:26:36.396Z,66.87
2023-03-11T08:29:02.713Z,66.86
2023-03-11T08:31:29.159Z,66.50
2023-03-11T08:33:55.529Z,67.28
2023-03-11T08:36:21.941Z,66.39
2023-03-11T08:38:48.322Z,66.59
2023-03-11T08:41:14.699Z,66.57
2023-03-11T08:43:41.030Z,66.94
2023-03-11T08:46:07.532Z,66.50
2023-03-11T08:48:33.999Z,66.72
2023-03-11T08:51:00.323Z,66.43
2023-03-11T08:53:26.642Z,66.38
2023-03-11T08:55:52.991Z,66.20
2023-03-11T08:58:19.308Z,65.99
2023-03-11T09:00:45.677Z,65.75
2023-03-11T09:03:12.069Z,65.80
2023-03-11T09:05:38.439Z,65.79
2023-03-11T09:08:05.740Z,65.54
2023-03-11T09:10:32.161Z,65.99
2023-03-11T09:12:58.475Z,65.27
2023-03-11T09:15:24.781Z,65.90
2023-03-11T09:17:51.088Z,66.16
2023-03-11T09:20:17.401Z,66.12
2023-03-11T09:22:43.721Z,65.82
2023-03-11T09:25:10.028Z,65.58
2023-03-11T09:27:36.371Z,65.50
2023-03-11T09:30:02.688Z,65.60
2023-03-11T09:32:29.012Z,66.02
2023-03-11T09:34:55.327Z,65.61
2023-03-11T09:37:21.636Z,66.16
2023-03-11T09:39:47.940Z,66.05
2023-03-11T09:42:14.249Z,65.84
2023-03-11T09:44:40.570Z,65.19
2023-03-11T09:47:06.888Z,66.51
2023-03-11T09:49:33.193Z,65.71
2023-03-11T09:51:59.539Z,65.91
2023-03-11T09:54:25.858Z,66.34
2023-03-11T09:56:52.168Z,65.77
2023-03-11T09:59:18.494Z,66.37
2023-03-11T10:01:44.854Z,66.92
2023-03-11T10:04:11.196Z,66.66
2023-03-11T10:06:37.524Z,66.53
2023-03-11T10:09:03.835Z,66.78
2023-03-11T10:11:30.156Z,66.22
2023-03-11T10:13:56.488Z,65.97
2023-03-11T10:16:22.825Z,66.77
2023-03-11T10:18:49.144Z,66.62
2023-03-11T10:21:15.457Z,65.98
2023-03-11T10:23:41.766Z,65.63
2023-03-11T10:26:08.093Z,66.10
2023-03-11T10:28:34.449Z,67.32
2023-03-11T10:31:00.760Z,67.03
2023-03-11T10:33:27.128Z,65.83
2023-03-11T10:35:53.454Z,65.53
2023-03-11T10:38:19.790Z,65.22
2023-03-11T10:40:46.114Z,65.16
2023-03-11T10:43:12.411Z,65.31
2023-03-11T10:45:38.788Z,65.02
2023-03-11T10:48:05.155Z,64.39
2023-03-11T10:50:31.462Z,65.21
2023-03-11T10:52:57.762Z,64.82
2023-03-11T10:55:24.071Z,64.54
2023-03-11T10:57:50.375Z,65.29
2023-03-11T11:00:16.679Z,65.55
2023-03-11T11:02:43.903Z,65.72
2023-03-11T11:05:10.222Z,65.35
2023-03-11T11:07:36.547Z,64.32
2023-03-11T11:10:02.861Z,63.68
2023-03-11T11:12:29.167Z,64.02
2023-03-11T11:14:55.480Z,64.25
2023-03-11T11:17:21.786Z,64.54
2023-03-11T11:19:48.097Z,63.97
2023-03-11T11:22:14.434Z,63.51
2023-03-11T11:24:40.738Z,64.32
2023-03-11T11:27:07.046Z,64.96
2023-03-11T11:29:33.386Z,65.76
2023-03-11T11:31:59.710Z,64.38
2023-03-11T11:34:26.048Z,62.46
2023-03-11T11:36:52.385Z,63.50
2023-03-11T11:39:18.690Z,63.64
2023-03-11T11:41:45.033Z,64.41
2023-03-11T11:44:11.364Z,64.46
2023-03-11T11:46:37.666Z,63.76
2023-03-11T11:49:03.990Z,62.96
2023-03-11T11:51:30.315Z,62.46
2023-03-11T11:53:56.638Z,63.67
2023-03-11T11:56:22.964Z,64.98
2023-03-11T11:58:49.292Z,63.61
2023-03-11T12:01:15.599Z,62.89
2023-03-11T12:03:41.963Z,62.12
2023-03-11T12:06:08.297Z,62.90
2023-03-11T12:08:34.624Z,63.55
2023-03-11T12:11:00.916Z,63.96
2023-03-11T12:13:27.217Z,64.26
2023-03-11T12:15:53.600Z,63.75
2023-03-11T12:18:19.940Z,63.89
2023-03-11T12:20:46.246Z,63.59
2023-03-11T12:23:12.558Z,63.98
2023-03-11T12:25:38.887Z,64.15
2023-03-11T12:28:05.213Z,65.30
2023-03-11T12:30:31.553Z,64.41
2023-03-11T12:32:57.876Z,62.77
2023-03-11T12:35:24.213Z,63.76
2023-03-11T12:37:50.575Z,62.62
2023-03-11T12:40:16.894Z,63.05
2023-03-11T12:42:43.211Z,62.90
2023-03-11T12:45:09.530Z,62.43
2023-03-11T12:47:35.948Z,62.66
2023-03-11T12:50:02.275Z,62.63
2023-03-11T12:52:28.577Z,62.48
2023-03-11T12:54:54.875Z,62.66
2023-03-11T12:57:21.198Z,62.17
2023-03-11T12:59:47.519Z,62.10
2023-03-11T13:02:13.834Z,61.38
2023-03-11T13:04:40.165Z,61.20
2023-03-11T13:07:06.478Z,61.35
2023-03-11T13:09:32.795Z,62.27
2023-03-11T13:11:59.113Z,61.48
2023-03-11T13:14:25.420Z,60.55
2023-03-11T13:16:51.736Z,60.99
2023-03-11T13:19:18.051Z,60.30
2023-03-11T13:21:44.374Z,61.14
2023-03-11T13:24:10.710Z,61.93
2023-03-11T13:26:37.056Z,61.39
2023-03-11T13:29:03.408Z,61.87
2023-03-11T13:31:29.841Z,61.95
2023-03-11T13:33:56.177Z,62.17
2023-03-11T13:36:22.491Z,62.27
2023-03-11T13:38:48.801Z,62.77
2023-03-11T13:41:15.109Z,63.07
2023-03-11T13:43:41.425Z,64.24
2023-03-11T13:46:07.842Z,63.64
2023-03-11T13:48:36.144Z,63.75
2023-03-11T13:51:03.781Z,63.85
2023-03-11T13:53:30.095Z,62.45
2023-03-11T13:55:56.442Z,62.73
2023-03-11T13:58:22.772Z,62.72
2023-03-11T14:00:49.109Z,63.03
2023-03-11T14:03:15.461Z,62.74
2023-03-11T14:05:41.789Z,63.15
2023-03-11T14:08:08.100Z,62.76
2023-03-11T14:10:34.437Z,62.52
2023-03-11T14:13:00.759Z,63.55
2023-03-11T14:15:27.080Z,63.21
2023-03-11T14:17:53.397Z,63.96
2023-03-11T14:20:19.722Z,63.07
2023-03-11T14:22:46.058Z,63.27
2023-03-11T14:25:12.379Z,63.74
2023-03-11T14:27:38.703Z,63.90
2023-03-11T14:30:05.059Z,63.42
2023-03-11T14:32:31.432Z,63.43
2023-03-11T14:34:57.803Z,62.61
2023-03-11T14:37:24.107Z,63.33
2023-03-11T14:39:53.390Z,63.76
2023-03-11T14:42:20.295Z,62.92
2023-03-11T14:44:46.625Z,62.85
2023-03-11T14:47:12.929Z,63.22
2023-03-11T14:49:39.230Z,63.77
2023-03-11T14:52:05.557Z,64.38
2023-03-11T14:54:31.865Z,64.24
2023-03-11T14:56:58.181Z,63.56
2023-03-11T14:59:24.495Z,63.67
2023-03-11T15:01:50.845Z,64.42
2023-03-11T15:04:17.150Z,63.88
2023-03-11T15:06:43.467Z,64.05
2023-03-11T15:09:09.830Z,63.92
2023-03-11T15:11:36.162Z,63.46
2023-03-11T15:14:02.462Z,63.61
2023-03-11T15:16:28.807Z,64.53
2023-03-11T15:18:55.141Z,64.05
2023-03-11T15:21:21.474Z,64.18
2023-03-11T15:23:47.779Z,64.33
2023-03-11T15:26:14.102Z,64.02
2023-03-11T15:28:40.403Z,63.73
2023-03-11T15:31:06.742Z,64.27
2023-03-11T15:33:33.081Z,64.66
2023-03-11T15:35:59.423Z,64.03
2023-03-11T15:38:25.809Z,63.84
2023-03-11T15:40:52.135Z,64.28
2023-03-11T15:43:18.446Z,64.45
2023-03-11T15:45:44.757Z,64.28
2023-03-11T15:48:11.198Z,65.17
2023-03-11T15:50:52.287Z,64.88
2023-03-11T15:53:19.117Z,64.32
2023-03-11T15:55:45.437Z,65.12
2023-03-11T15:58:11.771Z,64.62
2023-03-11T16:00:38.082Z,64.86
2023-03-11T16:03:04.423Z,64.58
2023-03-11T16:05:30.904Z,64.39
2023-03-11T16:07:57.241Z,64.03
2023-03-11T16:10:23.553Z,64.71
2023-03-11T16:12:49.864Z,64.14
2023-03-11T16:15:16.197Z,64.78
2023-03-11T16:17:49.915Z,64.43
2023-03-11T16:20:16.479Z,64.17
2023-03-11T16:22:42.823Z,64.09
2023-03-11T16:25:09.161Z,64.12
2023-03-11T16:27:35.476Z,64.85
2023-03-11T16:30:01.841Z,64.81
2023-03-11T16:32:28.213Z,65.13
2023-03-11T16:34:54.564Z,65.56
2023-03-11T16:37:20.889Z,64.95
2023-03-11T16:39:47.212Z,65.06
2023-03-11T16:42:13.540Z,65.28
2023-03-11T16:44:39.843Z,65.22
2023-03-11T16:47:06.169Z,65.28
2023-03-11T16:49:32.494Z,65.20
2023-03-11T16:51:58.898Z,65.10
2023-03-11T16:54:25.252Z,64.99
2023-03-11T16:56:51.578Z,65.91
2023-03-11T16:59:17.898Z,65.03
2023-03-11T17:01:44.261Z,65.26
2023-03-11T17:04:10.606Z,65.85
2023-03-11T17:06:36.948Z,65.71
2023-03-11T17:09:03.256Z,65.51
2023-03-11T17:11:29.566Z,65.61
2023-03-11T17:14:03.273Z,65.79
2023-03-11T17:16:40.116Z,65.26
2023-03-11T17:19:06.437Z,65.57
2023-03-11T17:21:32.762Z,65.47
2023-03-11T17:23:59.075Z,65.81
2023-03-11T17:26:25.390Z,66.19
2023-03-11T17:28:51.716Z,66.47
2023-03-11T17:31:18.092Z,66.03
2023-03-11T17:33:44.457Z,66.49
2023-03-11T17:36:10.854Z,66.07
2023-03-11T17:38:37.213Z,65.95
2023-03-11T17:41:03.543Z,66.21
2023-03-11T17:43:29.866Z,66.14
2023-03-11T17:45:56.190Z,65.58
2023-03-11T17:48:22.491Z,65.97
2023-03-11T17:50:48.831Z,66.79
2023-03-11T17:53:15.150Z,66.38
2023-03-11T17:55:41.471Z,66.46
2023-03-11T17:58:07.803Z,66.30
2023-03-11T18:00:34.138Z,66.09
2023-03-11T18:03:00.479Z,65.62
2023-03-11T18:05:26.799Z,66.13
2023-03-11T18:07:53.105Z,66.49
2023-03-11T18:10:19.433Z,65.67
2023-03-11T18:12:45.757Z,66.11
2023-03-11T18:15:12.087Z,65.60
2023-03-11T18:17:38.410Z,65.66
2023-03-11T18:20:04.732Z,66.39
2023-03-11T18:22:34.107Z,65.98
2023-03-11T18:25:01.544Z,66.18
2023-03-11T18:27:27.855Z,66.13
2023-03-11T18:29:54.159Z,66.62
2023-03-11T18:32:20.526Z,66.74
2023-03-11T18:34:46.883Z,66.71
2023-03-11T18:37:13.227Z,66.98
2023-03-11T18:39:39.558Z,66.03
2023-03-11T18:42:05.877Z,66.82
2023-03-11T18:44:32.191Z,66.31
2023-03-11T18:46:58.519Z,65.65
2023-03-11T18:49:24.850Z,66.69
2023-03-11T18:51:51.187Z,65.71
2023-03-11T18:54:17.506Z,65.89
2023-03-11T18:56:43.837Z,67.17
2023-03-11T18:59:10.187Z,66.14
2023-03-11T19:01:36.565Z,65.96
2023-03-11T19:04:02.961Z,65.90
2023-03-11T19:06:29.290Z,65.52
2023-03-11T19:08:55.644Z,66.04
2023-03-11T19:11:21.996Z,66.02
2023-03-11T19:13:48.376Z,66.25
2023-03-11T19:16:14.717Z,66.95
2023-03-11T19:18:41.035Z,66.79
2023-03-11T19:21:07.376Z,66.62
2023-03-11T19:23:33.703Z,66.98
2023-03-11T19:26:03.443Z,67.17
2023-03-11T19:28:30.057Z,67.05
2023-03-11T19:30:56.405Z,66.90
2023-03-11T19:33:22.771Z,66.97
2023-03-11T19:35:49.127Z,66.56
2023-03-11T19:38:15.456Z,66.69
2023-03-11T19:40:41.783Z,66.97
2023-03-11T19:43:08.170Z,67.24
2023-03-11T19:45:34.517Z,67.12
2023-03-11T19:48:00.856Z,66.99
2023-03-11T19:50:27.156Z,67.49
2023-03-11T19:52:53.531Z,67.15
2023-03-11T19:55:19.866Z,67.36
2023-03-11T19:57:46.171Z,66.05
2023-03-11T20:00:12.505Z,66.57
2023-03-11T20:02:38.848Z,66.98
2023-03-11T20:05:05.288Z,67.14
2023-03-11T20:07:31.640Z,66.85
2023-03-11T20:09:57.962Z,67.16
2023-03-11T20:12:24.310Z,67.13
2023-03-11T20:14:50.654Z,66.88
2023-03-11T20:17:16.972Z,67.05
2023-03-11T20:19:43.378Z,67.27
2023-03-11T20:22:09.747Z,67.43
2023-03-11T20:24:36.069Z,67.05
2023-03-11T20:27:02.477Z,66.41
2023-03-11T20:29:28.888Z,66.35
2023-03-11T20:31:55.247Z,66.67
2023-03-11T20:34:21.623Z,66.57
2023-03-11T20:36:47.949Z,66.20
2023-03-11T20:39:14.273Z,66.47
2023-03-11T20:41:40.590Z,67.26
2023-03-11T20:44:06.961Z,66.92
2023-03-11T20:46:33.322Z,66.91
2023-03-11T20:48:59.653Z,67.04
2023-03-11T20:51:26.134Z,66.84
2023-03-11T20:53:52.478Z,66.71
2023-03-11T20:56:18.861Z,66.52
2023-03-11T20:58:45.170Z,66.39
2023-03-11T21:01:11.510Z,66.56
2023-03-11T21:03:38.015Z,67.00
2023-03-11T21:06:04.404Z,66.71
2023-03-11T21:08:30.804Z,66.76
2023-03-11T21:10:57.209Z,66.54
2023-03-11T21:13:23.522Z,67.22
2023-03-11T21:15:49.925Z,67.15
2023-03-11T21:18:16.440Z,66.65
2023-03-11T21:20:42.750Z,67.51
2023-03-11T21:23:09.092Z,67.54
2023-03-11T21:25:35.402Z,67.33
2023-03-11T21:28:01.727Z,67.17
2023-03-11T21:30:28.110Z,67.52
2023-03-11T21:32:54.590Z,66.95
2023-03-11T21:35:21.044Z,67.26
2023-03-11T21:37:47.442Z,67.38
2023-03-11T21:40:13.991Z,67.47
2023-03-11T21:42:40.383Z,66.87
2023-03-11T21:45:06.703Z,66.93
2023-03-11T21:47:33.109Z,67.72
2023-03-11T21:49:59.530Z,67.95
2023-03-11T21:52:25.862Z,67.04
2023-03-11T21:54:52.314Z,67.97
2023-03-11T21:57:18.709Z,67.66
2023-03-11T21:59:45.142Z,67.76
2023-03-11T22:02:11.645Z,67.89
2023-03-11T22:04:38.147Z,68.14
2023-03-11T22:07:04.639Z,67.77
2023-03-11T22:09:30.967Z,67.82
2023-03-11T22:11:57.500Z,67.98
2023-03-11T22:14:24.040Z,68.21
2023-03-11T22:16:50.571Z,67.93
2023-03-11T22:19:16.963Z,68.09
2023-03-11T22:21:43.281Z,67.96
2023-03-11T22:24:09.675Z,68.58
2023-03-11T22:26:35.995Z,67.67
2023-03-11T22:29:03.955Z,67.12
2023-03-11T22:31:30.636Z,67.35
2023-03-11T22:33:57.058Z,66.98
2023-03-11T22:36:23.394Z,67.36
2023-03-11T22:38:49.715Z,66.88
2023-03-11T22:41:16.041Z,67.04
2023-03-11T22:43:42.368Z,67.06
2023-03-11T22:46:08.762Z,67.12
2023-03-11T22:48:35.148Z,66.94
2023-03-11T22:51:01.505Z,67.10
2023-03-11T22:53:27.843Z,67.30
2023-03-11T22:55:54.218Z,67.56
2023-03-11T22:58:20.548Z,67.39
2023-03-11T23:00:46.926Z,67.71
2023-03-11T23:03:13.347Z,67.53
2023-03-11T23:05:39.710Z,67.71
2023-03-11T23:08:06.028Z,68.90
2023-03-11T23:10:32.334Z,68.41
2023-03-11T23:12:58.651Z,68.87
2023-03-11T23:15:24.959Z,68.44
2023-03-11T23:17:51.281Z,69.11
2023-03-11T23:20:17.601Z,69.08
2023-03-11T23:22:43.975Z,68.43
2023-03-11T23:25:10.326Z,68.61
2023-03-11T23:27:36.638Z,67.72
2023-03-11T23:30:02.959Z,67.80
2023-03-11T23:32:29.365Z,68.56
2023-03-11T23:34:55.732Z,69.22
2023-03-11T23:37:22.056Z,68.33
2023-03-11T23:39:48.386Z,68.59
2023-03-11T23:42:25.129Z,68.64
2023-03-11T23:44:51.974Z,68.08
2023-03-11T23:47:18.308Z,68.78
2023-03-11T23:49:44.637Z,68.46
2023-03-11T23:52:10.955Z,69.04
2023-03-11T23:54:37.266Z,69.07
2023-03-11T23:57:03.584Z,68.87
2023-03-11T23:59:29.912Z,68.44
